createdAt,value
2023-05-01T19:56:13.446Z,18.90
2023-05-01T19:58:41.461Z,17.33
2023-05-01T20:01:12.363Z,12.90
2023-05-01T20:03:39.921Z,12.97
2023-05-01T20:06:06.729Z,13.20
2023-05-01T20:08:33.460Z,12.90
2023-05-01T20:11:01.646Z,12.07
2023-05-01T20:13:29.090Z,10.90
2023-05-01T20:15:56.067Z,11.67
2023-05-01T20:18:22.916Z,12.60
2023-05-01T20:20:50.303Z,12.53
2023-05-01T20:23:18.586Z,12.67
2023-05-01T20:25:45.781Z,12.47
2023-05-01T20:28:13.999Z,12.63
2023-05-01T20:30:42.924Z,12.93
2023-05-01T20:33:09.741Z,13.07
2023-05-01T20:35:37.107Z,14.77
2023-05-01T20:38:04.025Z,13.57
2023-05-01T20:40:31.560Z,12.57
2023-05-01T20:43:00.647Z,12.80
2023-05-01T20:45:28.399Z,12.77
2023-05-01T20:47:56.546Z,11.83
2023-05-01T20:50:23.286Z,12.83
2023-05-01T20:52:50.633Z,16.83
2023-05-01T20:55:17.418Z,17.67
2023-05-01T20:57:44.152Z,16.53
2023-05-01T21:00:11.569Z,15.93
2023-05-01T21:02:39.669Z,14.73
2023-05-01T21:05:10.636Z,17.30
2023-05-01T21:07:38.171Z,17.63
2023-05-01T21:10:06.377Z,14.13
2023-05-01T21:12:33.258Z,19.17
2023-05-01T21:15:00.197Z,16.37
2023-05-01T21:17:27.399Z,16.73
2023-05-01T21:19:54.243Z,20.93
2023-05-01T21:22:22.566Z,18.63
2023-05-01T21:24:53.033Z,18.67
2023-05-01T21:27:24.956Z,17.47
2023-05-01T21:29:57.212Z,17.07
2023-05-01T21:32:28.388Z,16.73
2023-05-01T21:34:55.828Z,19.07
2023-05-01T21:37:23.525Z,19.03
2023-05-01T21:39:51.182Z,17.80
2023-05-01T21:42:18.405Z,19.73
2023-05-01T21:44:45.427Z,18.20
2023-05-01T21:47:14.552Z,19.53
2023-05-01T21:49:41.321Z,20.47
2023-05-01T21:52:08.328Z,19.97
2023-05-01T21:54:38.039Z,20.93
2023-05-01T21:57:06.927Z,25.97
2023-05-01T21:59:37.015Z,36.90
2023-05-01T22:02:08.868Z,41.17
2023-05-01T22:04:36.697Z,32.17
2023-05-01T22:07:04.181Z,29.63
2023-05-01T22:09:31.105Z,24.13
2023-05-01T22:11:58.511Z,21.90
2023-05-01T22:14:30.896Z,21.23
2023-05-01T22:17:06.854Z,19.60
2023-05-01T22:19:33.763Z,19.90
2023-05-01T22:22:00.426Z,17.27
2023-05-01T22:24:27.094Z,18.50
2023-05-01T22:26:53.694Z,16.50
2023-05-01T22:29:20.968Z,20.77
2023-05-01T22:31:47.584Z,26.23
2023-05-01T22:34:14.246Z,23.17
2023-05-01T22:36:41.062Z,20.30
2023-05-01T22:39:07.674Z,21.20
2023-05-01T22:41:34.274Z,22.30
2023-05-01T22:44:00.933Z,23.97
2023-05-01T22:46:28.313Z,17.47
2023-05-01T22:48:54.938Z,9.10
2023-05-01T22:51:21.576Z,9.97
2023-05-01T22:53:48.923Z,9.90
2023-05-01T22:56:15.583Z,8.73
2023-05-01T22:58:42.370Z,7.73
2023-05-01T23:01:09.036Z,7.90
2023-05-01T23:03:38.102Z,8.03
2023-05-01T23:06:06.386Z,6.57
2023-05-01T23:08:33.412Z,6.73
2023-05-01T23:11:00.226Z,6.63
2023-05-01T23:13:27.652Z,7.17
2023-05-01T23:15:54.517Z,6.80
2023-05-01T23:18:23.567Z,6.40
2023-05-01T23:20:51.789Z,6.57
2023-05-01T23:23:20.640Z,6.63
2023-05-01T23:25:48.552Z,6.10
2023-05-01T23:28:20.878Z,6.70
2023-05-01T23:30:53.246Z,6.40
2023-05-01T23:33:21.539Z,6.10
2023-05-01T23:35:48.267Z,6.53
2023-05-01T23:38:15.603Z,6.93
2023-05-01T23:40:42.516Z,6.00
2023-05-01T23:43:10.196Z,5.53
2023-05-01T23:45:37.001Z,5.70
2023-05-01T23:48:04.194Z,6.03
2023-05-01T23:50:31.170Z,5.63
2023-05-01T23:52:57.824Z,5.40
2023-05-01T23:55:25.177Z,6.10
2023-05-01T23:57:51.759Z,5.80
